sensor_id;sensor_type;location;lat;lon;timestamp;pressure;altitude;pressure_sealevel;temperature;humidity
63665;BME280;49820;33.966;73.390;2023-05-21T02:06:14;78804.47;;;21.79;32.45
63665;BME280;49820;33.966;73.390;2023-05-21T02:08:43;78804.47;;;22.02;33.70
63665;BME280;49820;33.966;73.390;2023-05-21T02:11:13;78765.31;;;21.97;34.61
63665;BME280;49820;33.966;73.390;2023-05-21T02:13:42;78817.00;;;22.31;33.60
63665;BME280;49820;33.966;73.390;2023-05-21T02:40:30;78821.25;;;24.94;36.93
63665;BME280;49820;33.966;73.390;2023-05-21T02:43:00;78843.47;;;25.29;35.56
63665;BME280;49820;33.966;73.390;2023-05-21T02:45:31;78852.16;;;25.61;37.55
63665;BME280;49820;33.966;73.390;2023-05-21T02:48:01;78833.41;;;25.55;37.93
63665;BME280;49820;33.966;73.390;2023-05-21T02:50:34;78814.72;;;25.68;40.42
63665;BME280;49820;33.966;73.390;2023-05-21T02:53:03;78850.47;;;26.13;42.57
63665;BME280;49820;33.966;73.390;2023-05-21T02:55:34;78845.44;;;26.27;37.35
63665;BME280;49820;33.966;73.390;2023-05-21T02:58:04;78848.19;;;26.27;40.86
63665;BME280;49820;33.966;73.390;2023-05-21T03:00:34;78836.56;;;26.82;36.42
63665;BME280;49820;33.966;73.390;2023-05-21T03:03:03;78834.94;;;26.85;36.26
63665;BME280;49820;33.966;73.390;2023-05-21T03:05:33;78847.28;;;26.94;37.04
63665;BME280;49820;33.966;73.390;2023-05-21T03:08:03;78849.13;;;27.07;38.77
63665;BME280;49820;33.966;73.390;2023-05-21T03:10:32;78865.50;;;27.34;39.71
63665;BME280;49820;33.966;73.390;2023-05-21T03:13:01;78846.13;;;27.28;41.30
63665;BME280;49820;33.966;73.390;2023-05-21T03:15:36;78847.00;;;27.52;36.67
63665;BME280;49820;33.966;73.390;2023-05-21T03:18:08;78858.06;;;27.78;39.53
63665;BME280;49820;33.966;73.390;2023-05-21T03:20:38;78846.44;;;27.86;41.38
63665;BME280;49820;33.966;73.390;2023-05-21T03:23:17;78846.63;;;28.10;40.65
63665;BME280;49820;33.966;73.390;2023-05-21T03:25:46;78853.13;;;28.24;42.33
63665;BME280;49820;33.966;73.390;2023-05-21T03:28:17;78870.94;;;28.76;37.88
63665;BME280;49820;33.966;73.390;2023-05-21T03:30:48;78869.78;;;28.30;37.92
63665;BME280;49820;33.966;73.390;2023-05-21T03:33:30;78874.16;;;28.36;36.97
63665;BME280;49820;33.966;73.390;2023-05-21T03:36:03;78864.78;;;28.76;39.66
63665;BME280;49820;33.966;73.390;2023-05-21T03:38:36;78861.06;;;28.54;39.56
63665;BME280;49820;33.966;73.390;2023-05-21T03:41:07;78878.03;;;28.73;39.21
63665;BME280;49820;33.966;73.390;2023-05-21T03:43:37;78867.19;;;28.80;38.26
63665;BME280;49820;33.966;73.390;2023-05-21T03:46:06;78877.59;;;29.87;34.63
63665;BME280;49820;33.966;73.390;2023-05-21T03:48:58;78862.69;;;29.43;33.26
63665;BME280;49820;33.966;73.390;2023-05-21T03:51:29;78889.19;;;29.73;36.16
63665;BME280;49820;33.966;73.390;2023-05-21T03:53:59;78873.91;;;29.82;39.48
63665;BME280;49820;33.966;73.390;2023-05-21T03:56:29;78882.28;;;30.30;30.90
63665;BME280;49820;33.966;73.390;2023-05-21T03:58:58;78883.16;;;30.20;35.42
63665;BME280;49820;33.966;73.390;2023-05-21T04:01:27;78845.50;;;30.25;38.64
63665;BME280;49820;33.966;73.390;2023-05-21T04:03:57;78864.84;;;30.16;35.72
63665;BME280;49820;33.966;73.390;2023-05-21T04:06:27;78877.09;;;30.82;35.94
63665;BME280;49820;33.966;73.390;2023-05-21T04:08:57;78872.44;;;31.20;35.24
63665;BME280;49820;33.966;73.390;2023-05-21T04:11:26;78862.31;;;30.62;34.46
63665;BME280;49820;33.966;73.390;2023-05-21T04:13:56;78879.78;;;30.11;37.18
63665;BME280;49820;33.966;73.390;2023-05-21T04:16:25;78891.22;;;31.41;34.17
63665;BME280;49820;33.966;73.390;2023-05-21T04:18:55;78869.34;;;30.76;37.33
63665;BME280;49820;33.966;73.390;2023-05-21T04:21:26;78869.44;;;30.83;30.92
63665;BME280;49820;33.966;73.390;2023-05-21T04:23:55;78892.47;;;31.66;35.22
63665;BME280;49820;33.966;73.390;2023-05-21T04:26:43;78827.53;;;31.13;29.91
63665;BME280;49820;33.966;73.390;2023-05-21T04:29:12;78873.63;;;31.68;34.35
63665;BME280;49820;33.966;73.390;2023-05-21T04:31:47;78891.66;;;31.82;32.98
63665;BME280;49820;33.966;73.390;2023-05-21T04:34:17;78879.59;;;31.71;28.01
63665;BME280;49820;33.966;73.390;2023-05-21T04:36:47;78894.56;;;31.50;32.98
63665;BME280;49820;33.966;73.390;2023-05-21T04:39:17;78875.63;;;32.07;36.45
63665;BME280;49820;33.966;73.390;2023-05-21T04:41:46;78888.53;;;31.71;33.39
63665;BME280;49820;33.966;73.390;2023-05-21T04:44:18;78896.09;;;32.10;38.15
63665;BME280;49820;33.966;73.390;2023-05-21T04:46:47;78906.56;;;32.46;36.92
63665;BME280;49820;33.966;73.390;2023-05-21T04:49:18;78910.81;;;32.30;35.12
63665;BME280;49820;33.966;73.390;2023-05-21T04:51:48;78910.81;;;32.45;32.98
63665;BME280;49820;33.966;73.390;2023-05-21T04:54:18;78896.81;;;32.32;36.04
63665;BME280;49820;33.966;73.390;2023-05-21T04:56:47;78888.91;;;31.98;32.92
63665;BME280;49820;33.966;73.390;2023-05-21T04:59:16;78896.94;;;32.60;33.95
63665;BME280;49820;33.966;73.390;2023-05-21T05:01:46;78883.47;;;31.89;36.67
63665;BME280;49820;33.966;73.390;2023-05-21T05:04:15;78891.06;;;32.49;28.23
63665;BME280;49820;33.966;73.390;2023-05-21T05:06:45;78876.38;;;31.99;36.02
63665;BME280;49820;33.966;73.390;2023-05-21T05:09:14;78909.28;;;32.25;33.47
63665;BME280;49820;33.966;73.390;2023-05-21T05:11:44;78879.00;;;32.38;37.24
63665;BME280;49820;33.966;73.390;2023-05-21T05:14:13;78903.81;;;33.42;32.79
63665;BME280;49820;33.966;73.390;2023-05-21T05:17:04;78889.09;;;32.78;35.29
63665;BME280;49820;33.966;73.390;2023-05-21T05:19:55;78897.53;;;33.13;31.10
63665;BME280;49820;33.966;73.390;2023-05-21T05:22:26;78899.97;;;33.67;34.82
63665;BME280;49820;33.966;73.390;2023-05-21T05:24:56;78910.19;;;33.41;34.27
63665;BME280;49820;33.966;73.390;2023-05-21T05:27:25;78900.78;;;33.16;34.77
63665;BME280;49820;33.966;73.390;2023-05-21T05:29:54;78855.53;;;32.67;31.78
63665;BME280;49820;33.966;73.390;2023-05-21T05:32:23;78895.75;;;33.47;35.14
63665;BME280;49820;33.966;73.390;2023-05-21T05:34:55;78909.47;;;33.33;32.91
63665;BME280;49820;33.966;73.390;2023-05-21T05:37:27;78882.56;;;33.47;30.48
63665;BME280;49820;33.966;73.390;2023-05-21T05:39:56;78902.94;;;33.00;33.98
63665;BME280;49820;33.966;73.390;2023-05-21T05:42:27;78900.75;;;33.59;31.14
63665;BME280;49820;33.966;73.390;2023-05-21T05:45:03;78889.00;;;32.72;34.86
63665;BME280;49820;33.966;73.390;2023-05-21T05:47:33;78906.50;;;33.14;34.08
63665;BME280;49820;33.966;73.390;2023-05-21T05:50:03;78894.34;;;33.54;34.94
63665;BME280;49820;33.966;73.390;2023-05-21T05:52:32;78875.38;;;33.79;29.81
63665;BME280;49820;33.966;73.390;2023-05-21T05:55:02;78916.91;;;34.00;32.85
63665;BME280;49820;33.966;73.390;2023-05-21T05:57:31;78913.53;;;34.70;31.06
63665;BME280;49820;33.966;73.390;2023-05-21T06:00:06;78912.09;;;34.77;33.22
63665;BME280;49820;33.966;73.390;2023-05-21T06:02:44;78910.09;;;34.28;30.45
63665;BME280;49820;33.966;73.390;2023-05-21T06:05:15;78908.25;;;34.46;31.24
63665;BME280;49820;33.966;73.390;2023-05-21T06:07:45;78900.56;;;34.12;30.83
63665;BME280;49820;33.966;73.390;2023-05-21T06:10:14;78907.69;;;34.94;31.27
63665;BME280;49820;33.966;73.390;2023-05-21T06:12:43;78906.44;;;33.51;29.18
63665;BME280;49820;33.966;73.390;2023-05-21T06:15:13;78914.63;;;34.38;29.90
63665;BME280;49820;33.966;73.390;2023-05-21T06:17:46;78908.69;;;34.77;29.62
63665;BME280;49820;33.966;73.390;2023-05-21T06:20:16;78882.41;;;34.41;28.91
63665;BME280;49820;33.966;73.390;2023-05-21T06:22:46;78912.22;;;34.27;31.59
63665;BME280;49820;33.966;73.390;2023-05-21T06:25:15;78908.38;;;34.02;31.58
63665;BME280;49820;33.966;73.390;2023-05-21T06:27:45;78877.25;;;33.52;27.50
63665;BME280;49820;33.966;73.390;2023-05-21T06:30:22;78911.66;;;33.83;33.74
63665;BME280;49820;33.966;73.390;2023-05-21T06:32:52;78906.03;;;34.27;32.25
63665;BME280;49820;33.966;73.390;2023-05-21T06:35:22;78905.91;;;34.77;33.57
63665;BME280;49820;33.966;73.390;2023-05-21T06:37:52;78913.69;;;34.61;29.48
63665;BME280;49820;33.966;73.390;2023-05-21T06:40:21;78901.88;;;34.82;32.39
63665;BME280;49820;33.966;73.390;2023-05-21T06:42:54;78917.88;;;34.82;28.41
63665;BME280;49820;33.966;73.390;2023-05-21T06:45:32;78907.41;;;34.47;26.54
63665;BME280;49820;33.966;73.390;2023-05-21T06:48:18;78904.41;;;34.15;28.00
63665;BME280;49820;33.966;73.390;2023-05-21T06:50:47;78903.34;;;34.12;33.53
63665;BME280;49820;33.966;73.390;2023-05-21T06:53:18;78888.19;;;34.80;29.24
63665;BME280;49820;33.966;73.390;2023-05-21T06:55:48;78897.44;;;33.44;22.53
63665;BME280;49820;33.966;73.390;2023-05-21T06:58:41;78913.56;;;34.41;32.63
63665;BME280;49820;33.966;73.390;2023-05-21T07:01:10;78916.59;;;34.46;24.34
63665;BME280;49820;33.966;73.390;2023-05-21T07:03:39;78904.44;;;34.50;27.58
63665;BME280;49820;33.966;73.390;2023-05-21T07:06:08;78922.34;;;34.16;30.61
63665;BME280;49820;33.966;73.390;2023-05-21T07:08:38;78819.75;;;33.09;27.20
63665;BME280;49820;33.966;73.390;2023-05-21T07:11:08;78899.06;;;33.84;25.34
63665;BME280;49820;33.966;73.390;2023-05-21T07:13:38;78887.44;;;34.25;31.04
63665;BME280;49820;33.966;73.390;2023-05-21T07:16:07;78907.81;;;34.15;27.16
63665;BME280;49820;33.966;73.390;2023-05-21T07:18:38;78913.91;;;34.94;27.88
63665;BME280;49820;33.966;73.390;2023-05-21T07:21:07;78888.13;;;35.22;26.02
63665;BME280;49820;33.966;73.390;2023-05-21T07:23:37;78906.59;;;34.21;21.43
63665;BME280;49820;33.966;73.390;2023-05-21T07:26:09;78914.22;;;34.42;27.41
63665;BME280;49820;33.966;73.390;2023-05-21T07:28:38;78901.03;;;32.46;29.02
63665;BME280;49820;33.966;73.390;2023-05-21T07:31:08;78919.94;;;30.49;26.43
63665;BME280;49820;33.966;73.390;2023-05-21T07:33:46;78895.56;;;29.54;27.04
63665;BME280;49820;33.966;73.390;2023-05-21T07:36:17;78909.47;;;31.14;23.92
63665;BME280;49820;33.966;73.390;2023-05-21T07:38:46;78896.63;;;32.19;26.75
63665;BME280;49820;33.966;73.390;2023-05-21T07:41:16;78906.84;;;33.25;25.70
63665;BME280;49820;33.966;73.390;2023-05-21T07:43:47;78908.53;;;32.33;27.03
63665;BME280;49820;33.966;73.390;2023-05-21T07:46:17;78916.06;;;31.65;24.27
63665;BME280;49820;33.966;73.390;2023-05-21T07:48:52;78902.19;;;30.07;22.56
63665;BME280;49820;33.966;73.390;2023-05-21T07:51:21;78919.63;;;30.53;22.75
63665;BME280;49820;33.966;73.390;2023-05-21T07:53:51;78914.53;;;31.51;26.11
63665;BME280;49820;33.966;73.390;2023-05-21T07:56:29;78906.31;;;32.27;23.14
63665;BME280;49820;33.966;73.390;2023-05-21T07:59:00;78904.19;;;32.42;22.00
63665;BME280;49820;33.966;73.390;2023-05-21T08:01:30;78887.19;;;32.99;25.60
63665;BME280;49820;33.966;73.390;2023-05-21T08:04:00;78903.50;;;32.57;27.27
63665;BME280;49820;33.966;73.390;2023-05-21T08:06:35;78901.06;;;32.68;29.28
63665;BME280;49820;33.966;73.390;2023-05-21T08:09:05;78895.44;;;32.77;24.48
63665;BME280;49820;33.966;73.390;2023-05-21T08:11:35;78881.47;;;33.22;26.56
63665;BME280;49820;33.966;73.390;2023-05-21T08:14:04;78905.41;;;33.54;22.92
63665;BME280;49820;33.966;73.390;2023-05-21T08:16:34;78904.75;;;33.76;21.64
63665;BME280;49820;33.966;73.390;2023-05-21T08:19:04;78911.03;;;33.39;21.23
63665;BME280;49820;33.966;73.390;2023-05-21T08:21:33;78876.75;;;32.99;21.25
63665;BME280;49820;33.966;73.390;2023-05-21T08:24:03;78901.56;;;33.29;20.35
63665;BME280;49820;33.966;73.390;2023-05-21T08:26:32;78888.00;;;33.62;20.99
63665;BME280;49820;33.966;73.390;2023-05-21T08:29:01;78904.78;;;33.32;19.36
63665;BME280;49820;33.966;73.390;2023-05-21T08:31:30;78888.72;;;33.04;20.79
63665;BME280;49820;33.966;73.390;2023-05-21T08:33:59;78892.94;;;33.90;28.70
63665;BME280;49820;33.966;73.390;2023-05-21T08:36:38;78889.56;;;34.25;26.46
63665;BME280;49820;33.966;73.390;2023-05-21T08:39:30;78873.84;;;33.51;21.83
63665;BME280;49820;33.966;73.390;2023-05-21T08:42:10;78867.03;;;33.28;21.17
63665;BME280;49820;33.966;73.390;2023-05-21T08:45:04;78894.06;;;33.06;20.46
63665;BME280;49820;33.966;73.390;2023-05-21T08:47:40;78900.72;;;32.72;19.53
63665;BME280;49820;33.966;73.390;2023-05-21T08:50:16;78876.53;;;32.27;20.49
63665;BME280;49820;33.966;73.390;2023-05-21T08:52:49;78879.00;;;32.90;19.64
63665;BME280;49820;33.966;73.390;2023-05-21T08:55:19;78901.75;;;32.53;23.20
63665;BME280;49820;33.966;73.390;2023-05-21T08:57:49;78886.41;;;31.18;19.85
63665;BME280;49820;33.966;73.390;2023-05-21T09:00:24;78892.00;;;30.85;24.25
63665;BME280;49820;33.966;73.390;2023-05-21T09:02:54;78881.94;;;31.29;21.40
63665;BME280;49820;33.966;73.390;2023-05-21T09:05:27;78893.28;;;31.10;19.58
63665;BME280;49820;33.966;73.390;2023-05-21T09:08:23;78889.91;;;31.64;23.21
63665;BME280;49820;33.966;73.390;2023-05-21T09:11:00;78896.34;;;32.30;21.56
63665;BME280;49820;33.966;73.390;2023-05-21T09:13:45;78900.50;;;32.07;26.52
63665;BME280;49820;33.966;73.390;2023-05-21T09:16:22;78866.31;;;31.50;25.92
63665;BME280;49820;33.966;73.390;2023-05-21T09:18:52;78873.47;;;30.12;22.18
63665;BME280;49820;33.966;73.390;2023-05-21T09:21:30;78876.22;;;29.71;24.93
63665;BME280;49820;33.966;73.390;2023-05-21T09:24:08;78881.59;;;29.65;22.39
63665;BME280;49820;33.966;73.390;2023-05-21T09:26:42;78890.53;;;30.86;23.32
63665;BME280;49820;33.966;73.390;2023-05-21T09:29:12;78878.66;;;31.12;24.09
63665;BME280;49820;33.966;73.390;2023-05-21T09:31:45;78854.28;;;31.83;21.76
63665;BME280;49820;33.966;73.390;2023-05-21T09:34:16;78888.41;;;32.41;27.12
63665;BME280;49820;33.966;73.390;2023-05-21T09:37:02;78888.53;;;32.02;24.00
63665;BME280;49820;33.966;73.390;2023-05-21T09:39:39;78886.22;;;32.04;20.56
63665;BME280;49820;33.966;73.390;2023-05-21T09:42:09;78877.03;;;31.84;20.67
63665;BME280;49820;33.966;73.390;2023-05-21T09:44:42;78883.66;;;32.02;22.02
63665;BME280;49820;33.966;73.390;2023-05-21T09:47:12;78851.97;;;30.78;27.20
63665;BME280;49820;33.966;73.390;2023-05-21T09:49:48;78853.78;;;29.51;24.70
63665;BME280;49820;33.966;73.390;2023-05-21T09:52:24;78896.56;;;29.33;22.60
63665;BME280;49820;33.966;73.390;2023-05-21T09:54:54;78868.13;;;29.11;23.24
63665;BME280;49820;33.966;73.390;2023-05-21T09:57:27;78884.28;;;29.82;30.16
63665;BME280;49820;33.966;73.390;2023-05-21T09:59:57;78882.91;;;30.07;29.40
63665;BME280;49820;33.966;73.390;2023-05-21T10:02:28;78892.69;;;29.88;29.11
63665;BME280;49820;33.966;73.390;2023-05-21T10:04:58;78844.31;;;29.25;29.64
63665;BME280;49820;33.966;73.390;2023-05-21T10:07:28;78862.19;;;28.82;30.57
63665;BME280;49820;33.966;73.390;2023-05-21T10:10:00;78885.47;;;28.32;26.43
63665;BME280;49820;33.966;73.390;2023-05-21T10:12:31;78788.34;;;26.85;32.59
63665;BME280;49820;33.966;73.390;2023-05-21T10:15:03;78881.34;;;27.43;28.92
63665;BME280;49820;33.966;73.390;2023-05-21T10:17:37;78875.75;;;27.17;30.56
63665;BME280;49820;33.966;73.390;2023-05-21T10:20:10;78874.50;;;27.24;30.04
63665;BME280;49820;33.966;73.390;2023-05-21T10:22:41;78901.34;;;27.41;30.18
63665;BME280;49820;33.966;73.390;2023-05-21T10:25:12;78895.97;;;27.22;30.67
63665;BME280;49820;33.966;73.390;2023-05-21T10:27:41;78871.75;;;26.88;31.36
63665;BME280;49820;33.966;73.390;2023-05-21T10:30:11;78892.50;;;27.04;35.73
63665;BME280;49820;33.966;73.390;2023-05-21T10:32:41;78868.94;;;26.51;35.16
63665;BME280;49820;33.966;73.390;2023-05-21T10:35:13;78867.75;;;26.68;39.27
63665;BME280;49820;33.966;73.390;2023-05-21T10:37:44;78843.63;;;26.42;36.90
63665;BME280;49820;33.966;73.390;2023-05-21T10:40:14;78873.03;;;26.33;37.02
63665;BME280;49820;33.966;73.390;2023-05-21T10:45:46;78877.41;;;26.19;35.29
63665;BME280;49820;33.966;73.390;2023-05-21T10:59:06;78901.63;;;25.68;34.79
63665;BME280;49820;33.966;73.390;2023-05-21T11:01:40;78891.16;;;25.51;39.04
63665;BME280;49820;33.966;73.390;2023-05-21T11:04:11;78853.69;;;25.20;34.41
63665;BME280;49820;33.966;73.390;2023-05-21T11:06:46;78883.88;;;25.47;36.14
63665;BME280;49820;33.966;73.390;2023-05-21T11:09:16;78857.31;;;25.16;39.28
63665;BME280;49820;33.966;73.390;2023-05-21T11:11:50;78867.16;;;25.32;36.56
63665;BME280;49820;33.966;73.390;2023-05-21T11:17:16;78876.03;;;25.52;36.89
63665;BME280;49820;33.966;73.390;2023-05-21T11:20:08;78868.66;;;25.40;35.03
63665;BME280;49820;33.966;73.390;2023-05-21T11:22:38;78837.34;;;25.28;36.81
63665;BME280;49820;33.966;73.390;2023-05-21T11:25:08;78882.47;;;25.68;37.01
63665;BME280;49820;33.966;73.390;2023-05-21T11:27:40;78868.09;;;25.48;36.13
63665;BME280;49820;33.966;73.390;2023-05-21T11:30:18;78878.88;;;25.31;37.57
63665;BME280;49820;33.966;73.390;2023-05-21T11:38:37;78899.34;;;25.51;38.40
63665;BME280;49820;33.966;73.390;2023-05-21T11:41:19;78892.53;;;25.31;36.45
63665;BME280;49820;33.966;73.390;2023-05-21T11:44:00;78882.16;;;24.82;37.12
63665;BME280;49820;33.966;73.390;2023-05-21T11:46:29;78897.81;;;24.73;36.89
63665;BME280;49820;33.966;73.390;2023-05-21T11:49:00;78858.28;;;24.21;36.77
63665;BME280;49820;33.966;73.390;2023-05-21T11:51:30;78887.81;;;24.69;35.33
63665;BME280;49820;33.966;73.390;2023-05-21T11:54:06;78866.28;;;24.44;37.26
63665;BME280;49820;33.966;73.390;2023-05-21T11:56:37;78891.03;;;24.83;33.20
63665;BME280;49820;33.966;73.390;2023-05-21T11:59:16;78871.13;;;24.73;36.05
63665;BME280;49820;33.966;73.390;2023-05-21T12:01:48;78845.66;;;24.15;36.08
63665;BME280;49820;33.966;73.390;2023-05-21T12:04:20;78887.50;;;24.95;35.12
63665;BME280;49820;33.966;73.390;2023-05-21T12:06:52;78900.63;;;25.33;36.70
63665;BME280;49820;33.966;73.390;2023-05-21T12:09:25;78881.16;;;25.18;34.69
63665;BME280;49820;33.966;73.390;2023-05-21T12:11:59;78897.56;;;25.18;36.76
63665;BME280;49820;33.966;73.390;2023-05-21T12:14:31;78845.34;;;24.81;33.09
63665;BME280;49820;33.966;73.390;2023-05-21T12:17:03;78896.13;;;25.19;37.57
63665;BME280;49820;33.966;73.390;2023-05-21T12:19:33;78858.78;;;24.75;35.70
63665;BME280;49820;33.966;73.390;2023-05-21T12:22:04;78891.78;;;24.92;38.27
63665;BME280;49820;33.966;73.390;2023-05-21T12:24:35;78870.03;;;24.49;33.96
63665;BME280;49820;33.966;73.390;2023-05-21T12:27:06;78880.47;;;24.36;35.18
63665;BME280;49820;33.966;73.390;2023-05-21T12:29:42;78895.06;;;24.22;36.05
63665;BME280;49820;33.966;73.390;2023-05-21T12:32:12;78886.34;;;24.09;37.82
63665;BME280;49820;33.966;73.390;2023-05-21T12:34:48;78900.63;;;24.09;38.00
63665;BME280;49820;33.966;73.390;2023-05-21T12:37:23;78898.44;;;23.80;36.82
63665;BME280;49820;33.966;73.390;2023-05-21T12:39:59;78859.69;;;23.45;34.82
63665;BME280;49820;33.966;73.390;2023-05-21T12:42:32;78882.72;;;23.48;38.99
63665;BME280;49820;33.966;73.390;2023-05-21T12:45:08;78879.69;;;23.31;37.96
63665;BME280;49820;33.966;73.390;2023-05-21T12:47:38;78879.38;;;23.03;35.61
63665;BME280;49820;33.966;73.390;2023-05-21T12:50:08;78894.59;;;23.21;36.80
63665;BME280;49820;33.966;73.390;2023-05-21T12:52:41;78883.09;;;22.87;38.13
63665;BME280;49820;33.966;73.390;2023-05-21T12:55:13;78890.78;;;22.61;36.15
63665;BME280;49820;33.966;73.390;2023-05-21T12:57:44;78874.81;;;22.32;42.17
63665;BME280;49820;33.966;73.390;2023-05-21T13:00:14;78892.16;;;22.26;41.22
63665;BME280;49820;33.966;73.390;2023-05-21T13:02:52;78879.63;;;22.08;39.26
63665;BME280;49820;33.966;73.390;2023-05-21T13:05:22;78865.97;;;21.97;38.17
63665;BME280;49820;33.966;73.390;2023-05-21T13:07:52;78877.91;;;21.79;38.14
63665;BME280;49820;33.966;73.390;2023-05-21T13:10:22;78876.81;;;21.74;38.33
63665;BME280;49820;33.966;73.390;2023-05-21T13:12:51;78871.16;;;21.78;36.56
63665;BME280;49820;33.966;73.390;2023-05-21T13:15:21;78880.44;;;21.70;37.38
63665;BME280;49820;33.966;73.390;2023-05-21T13:17:50;78884.25;;;21.63;36.04
63665;BME280;49820;33.966;73.390;2023-05-21T13:20:22;78886.38;;;21.73;40.95
63665;BME280;49820;33.966;73.390;2023-05-21T13:22:56;78891.78;;;21.62;42.38
63665;BME280;49820;33.966;73.390;2023-05-21T13:25:26;78882.00;;;21.55;37.39
63665;BME280;49820;33.966;73.390;2023-05-21T13:28:03;78883.63;;;21.50;37.16
63665;BME280;49820;33.966;73.390;2023-05-21T13:30:35;78889.72;;;21.50;35.95
63665;BME280;49820;33.966;73.390;2023-05-21T13:33:05;78870.97;;;21.33;38.31
63665;BME280;49820;33.966;73.390;2023-05-21T13:35:35;78876.44;;;21.21;37.37
63665;BME280;49820;33.966;73.390;2023-05-21T13:38:05;78883.81;;;21.10;38.14
63665;BME280;49820;33.966;73.390;2023-05-21T13:40:34;78879.41;;;20.91;39.10
63665;BME280;49820;33.966;73.390;2023-05-21T13:43:05;78866.19;;;20.73;37.02
63665;BME280;49820;33.966;73.390;2023-05-21T13:45:34;78856.75;;;20.59;36.85
63665;BME280;49820;33.966;73.390;2023-05-21T13:48:04;78845.41;;;20.29;36.77
63665;BME280;49820;33.966;73.390;2023-05-21T13:50:34;78874.84;;;20.37;39.21
63665;BME280;49820;33.966;73.390;2023-05-21T13:53:04;78897.88;;;20.38;37.83
63665;BME280;49820;33.966;73.390;2023-05-21T13:55:33;78892.28;;;20.15;38.30
63665;BME280;49820;33.966;73.390;2023-05-21T13:58:02;78908.34;;;20.06;37.94
63665;BME280;49820;33.966;73.390;2023-05-21T14:00:33;78909.16;;;19.90;37.66
63665;BME280;49820;33.966;73.390;2023-05-21T14:03:34;78916.06;;;19.74;38.55
63665;BME280;49820;33.966;73.390;2023-05-21T14:06:36;78913.34;;;19.74;35.02
63665;BME280;49820;33.966;73.390;2023-05-21T14:09:25;78910.50;;;19.64;38.55
63665;BME280;49820;33.966;73.390;2023-05-21T14:18:31;78913.59;;;19.28;36.53
63665;BME280;49820;33.966;73.390;2023-05-21T14:21:30;78915.44;;;19.32;34.25
63665;BME280;49820;33.966;73.390;2023-05-21T14:24:14;78894.13;;;19.11;34.79
63665;BME280;49820;33.966;73.390;2023-05-21T14:27:17;78912.88;;;19.15;33.76
63665;BME280;49820;33.966;73.390;2023-05-21T14:29:51;78881.19;;;18.84;32.15
63665;BME280;49820;33.966;73.390;2023-05-21T14:32:42;78911.03;;;19.12;31.65
63665;BME280;49820;33.966;73.390;2023-05-21T14:35:28;78895.09;;;18.91;30.29
63665;BME280;49820;33.966;73.390;2023-05-21T14:38:32;78916.94;;;19.01;30.51
63665;BME280;49820;33.966;73.390;2023-05-21T14:41:13;78916.47;;;18.97;30.48
63665;BME280;49820;33.966;73.390;2023-05-21T14:44:04;78912.84;;;18.88;30.86
63665;BME280;49820;33.966;73.390;2023-05-21T14:47:03;78910.34;;;18.69;30.82
63665;BME280;49820;33.966;73.390;2023-05-21T14:49:41;78884.41;;;18.45;30.57
63665;BME280;49820;33.966;73.390;2023-05-21T14:52:35;78925.34;;;18.51;30.32
63665;BME280;49820;33.966;73.390;2023-05-21T14:55:24;78913.22;;;18.36;30.16
